createdAt,value
2019-02-05T00:00:58.678Z,0.55
2019-02-05T00:03:27.929Z,0.53
2019-02-05T00:05:57.145Z,0.51
2019-02-05T00:08:26.490Z,0.52
2019-02-05T00:10:56.079Z,0.44
2019-02-05T00:13:25.159Z,0.32
2019-02-05T00:15:54.266Z,0.35
2019-02-05T00:18:23.351Z,0.40
2019-02-05T00:20:52.481Z,0.40
2019-02-05T00:23:21.714Z,0.43
2019-02-05T00:25:51.090Z,0.47
2019-02-05T00:28:20.228Z,0.41
2019-02-05T00:30:49.762Z,0.61
2019-02-05T00:33:18.824Z,0.54
2019-02-05T00:35:49.807Z,0.43
2019-02-05T00:38:18.987Z,0.46
2019-02-05T00:40:48.351Z,0.44
2019-02-05T00:43:17.635Z,0.36
2019-02-05T00:45:46.831Z,0.34
2019-02-05T00:48:15.911Z,0.28
2019-02-05T00:50:45.173Z,0.21
2019-02-05T00:53:14.504Z,0.18
2019-02-05T00:55:43.843Z,0.14
2019-02-05T00:58:13.209Z,0.13
2019-02-05T01:00:42.300Z,0.16
2019-02-05T01:03:12.072Z,0.20
2019-02-05T01:05:41.478Z,0.16
2019-02-05T01:08:10.581Z,0.20
2019-02-05T01:10:40.012Z,0.26
2019-02-05T01:13:09.110Z,0.22
2019-02-05T01:15:38.293Z,0.22
2019-02-05T01:18:07.486Z,0.27
2019-02-05T01:20:37.037Z,0.31
2019-02-05T01:23:06.103Z,0.53
2019-02-05T01:25:35.389Z,0.50
2019-02-05T01:28:04.572Z,0.51
2019-02-05T01:30:33.634Z,0.51
2019-02-05T01:33:03.009Z,0.49
2019-02-05T01:35:32.283Z,0.49
2019-02-05T01:38:01.406Z,0.46
2019-02-05T01:40:30.501Z,0.42
2019-02-05T01:42:59.612Z,0.42
2019-02-05T01:45:29.024Z,0.46
2019-02-05T01:47:58.127Z,0.35
2019-02-05T01:50:28.270Z,0.34
2019-02-05T01:52:57.607Z,0.38
2019-02-05T01:55:26.909Z,0.36
2019-02-05T01:57:56.006Z,0.38
2019-02-05T02:00:30.886Z,0.44
2019-02-05T02:03:00.220Z,0.49
2019-02-05T02:05:29.752Z,0.46
2019-02-05T02:07:59.236Z,0.35
2019-02-05T02:10:50.312Z,0.27
2019-02-05T02:13:19.636Z,0.23
2019-02-05T02:15:48.888Z,0.19
2019-02-05T02:18:18.260Z,0.15
2019-02-05T02:20:47.382Z,0.08
2019-02-05T02:23:16.706Z,0.00
2019-02-05T02:25:45.881Z,-0.02
2019-02-05T02:28:15.001Z,-0.07
2019-02-05T02:30:44.207Z,-0.04
2019-02-05T02:33:13.503Z,-0.04
2019-02-05T02:35:42.588Z,0.01
2019-02-05T02:38:12.003Z,0.00
2019-02-05T02:40:41.139Z,0.15
2019-02-05T02:43:10.216Z,0.17
2019-02-05T02:45:39.527Z,0.19
2019-02-05T02:48:10.647Z,0.10
2019-02-05T02:50:39.875Z,0.05
2019-02-05T02:53:09.178Z,0.03
2019-02-05T02:55:38.305Z,-0.01
2019-02-05T02:58:07.691Z,-0.13
2019-02-05T03:00:36.827Z,-0.20
2019-02-05T03:03:06.172Z,-0.29
2019-02-05T03:05:35.261Z,-0.37
2019-02-05T03:08:04.486Z,-0.51
2019-02-05T03:10:33.647Z,-0.53
2019-02-05T03:13:03.040Z,-0.60
2019-02-05T03:15:32.120Z,-0.60
2019-02-05T03:18:01.413Z,-0.56
2019-02-05T03:20:30.893Z,-0.55
2019-02-05T03:23:00.065Z,-0.56
2019-02-05T03:25:29.203Z,-0.57
2019-02-05T03:27:58.310Z,-0.61
2019-02-05T03:30:27.622Z,-0.63
2019-02-05T03:32:56.858Z,-0.70
2019-02-05T03:35:25.902Z,-0.73
2019-02-05T03:37:55.200Z,-0.64
2019-02-05T03:41:04.021Z,-0.69
2019-02-05T03:43:35.172Z,-0.80
2019-02-05T03:46:17.592Z,-0.82
2019-02-05T03:48:50.466Z,-0.76
2019-02-05T03:52:00.817Z,-0.83
2019-02-05T03:54:57.369Z,-0.81
2019-02-05T03:58:09.573Z,-0.82
2019-02-05T04:01:21.023Z,-0.85
2019-02-05T04:04:49.301Z,-0.94
2019-02-05T04:08:03.591Z,-0.98
2019-02-05T04:11:09.044Z,-1.00
2019-02-05T04:14:22.959Z,-1.06
2019-02-05T04:17:29.630Z,-1.04
2019-02-05T04:21:07.171Z,-1.12
2019-02-05T04:24:09.033Z,-1.09
2019-02-05T04:27:20.185Z,-0.98
2019-02-05T04:30:11.807Z,-1.00
2019-02-05T04:33:21.879Z,-1.06
2019-02-05T04:36:21.966Z,-1.09
2019-02-05T04:39:38.259Z,-1.19
2019-02-05T04:42:25.421Z,-1.25
2019-02-05T04:45:35.704Z,-1.34
2019-02-05T04:48:52.336Z,-1.43
2019-02-05T04:51:59.613Z,-1.49
2019-02-05T04:55:03.129Z,-1.51
2019-02-05T04:58:01.592Z,-1.58
2019-02-05T05:01:02.864Z,-1.62
2019-02-05T05:03:56.432Z,-1.53
2019-02-05T05:07:16.461Z,-1.47
2019-02-05T05:09:50.645Z,-1.47
2019-02-05T05:12:19.988Z,-1.43
2019-02-05T05:14:49.273Z,-1.47
2019-02-05T05:17:18.554Z,-1.51
2019-02-05T05:19:47.888Z,-1.47
2019-02-05T05:22:17.481Z,-1.43
2019-02-05T05:24:47.067Z,-1.42
2019-02-05T05:27:18.017Z,-1.51
2019-02-05T05:29:47.491Z,-1.38
2019-02-05T05:32:17.322Z,-1.46
2019-02-05T05:34:46.440Z,-1.46
2019-02-05T05:37:13.948Z,-1.51
2019-02-05T05:39:43.076Z,-1.54
2019-02-05T05:42:12.332Z,-1.53
2019-02-05T05:44:41.579Z,-1.59
2019-02-05T05:47:10.718Z,-1.63
2019-02-05T05:49:39.998Z,-1.69
2019-02-05T05:52:09.249Z,-1.64
2019-02-05T05:54:38.452Z,-1.74
2019-02-05T05:57:09.460Z,-1.77
2019-02-05T05:59:38.744Z,-1.93
2019-02-05T06:02:08.164Z,-1.96
2019-02-05T06:04:37.402Z,-1.81
2019-02-05T06:07:06.584Z,-1.84
2019-02-05T06:09:35.818Z,-1.82
2019-02-05T06:12:05.392Z,-1.93
2019-02-05T06:14:34.523Z,-1.98
2019-02-05T06:17:03.927Z,-1.98
2019-02-05T06:19:32.993Z,-1.93
2019-02-05T06:22:02.075Z,-1.93
2019-02-05T06:24:31.192Z,-1.95
2019-02-05T06:27:00.397Z,-1.91
2019-02-05T06:29:30.065Z,-1.92
2019-02-05T06:31:59.562Z,-1.86
2019-02-05T06:34:28.924Z,-1.85
2019-02-05T06:36:58.184Z,-1.84
2019-02-05T06:39:27.291Z,-1.80
2019-02-05T06:41:56.698Z,-1.72
2019-02-05T06:44:25.793Z,-1.82
2019-02-05T06:46:54.920Z,-1.85
2019-02-05T06:49:24.588Z,-1.87
2019-02-05T06:51:53.666Z,-1.78
2019-02-05T06:54:23.001Z,-1.86
2019-02-05T06:56:52.120Z,-1.92
2019-02-05T06:59:21.316Z,-1.90
2019-02-05T07:01:50.466Z,-1.89
2019-02-05T07:04:19.748Z,-1.87
2019-02-05T07:06:48.908Z,-1.85
2019-02-05T07:09:18.007Z,-1.97
2019-02-05T07:11:47.366Z,-1.88
2019-02-05T07:14:16.489Z,-1.66
2019-02-05T07:16:45.608Z,-1.42
2019-02-05T07:19:14.899Z,-1.23
2019-02-05T07:21:44.227Z,-0.97
2019-02-05T07:24:13.394Z,-0.68
2019-02-05T07:26:42.633Z,-0.44
2019-02-05T07:29:11.732Z,-0.08
2019-02-05T07:31:41.154Z,-0.02
2019-02-05T07:34:10.396Z,0.03
2019-02-05T07:36:39.511Z,0.29
2019-02-05T07:39:09.607Z,0.50
2019-02-05T07:41:38.911Z,0.57
2019-02-05T07:44:07.999Z,0.50
2019-02-05T07:46:37.461Z,0.60
2019-02-05T07:49:06.683Z,0.61
2019-02-05T07:51:36.776Z,0.81
2019-02-05T07:54:05.926Z,0.94
2019-02-05T07:56:35.398Z,1.06
2019-02-05T07:59:10.433Z,1.30
2019-02-05T08:01:35.540Z,1.45
2019-02-05T08:04:05.248Z,1.34
2019-02-05T08:06:34.438Z,1.29
2019-02-05T08:09:05.139Z,1.45
2019-02-05T08:11:34.256Z,1.23
2019-02-05T08:14:06.121Z,1.53
2019-02-05T08:16:35.019Z,1.59
2019-02-05T08:19:04.058Z,1.79
2019-02-05T08:21:33.336Z,1.85
2019-02-05T08:24:02.400Z,2.05
2019-02-05T08:26:31.660Z,1.77
2019-02-05T08:29:00.996Z,1.91
2019-02-05T08:31:30.508Z,2.17
2019-02-05T08:33:59.831Z,2.37
2019-02-05T08:36:28.886Z,2.55
2019-02-05T08:38:58.170Z,2.54
2019-02-05T08:41:27.306Z,2.99
2019-02-05T08:43:56.438Z,2.94
2019-02-05T08:46:25.701Z,2.94
2019-02-05T08:48:56.913Z,3.00
2019-02-05T08:51:26.038Z,2.87
2019-02-05T08:53:55.159Z,3.07
2019-02-05T08:56:24.223Z,3.39
2019-02-05T08:58:53.473Z,3.50
2019-02-05T09:01:22.886Z,3.50
2019-02-05T09:03:51.956Z,3.47
2019-02-05T09:06:21.228Z,3.24
2019-02-05T09:08:50.499Z,3.22
2019-02-05T09:11:19.736Z,3.57
2019-02-05T09:13:48.848Z,3.57
2019-02-05T09:16:18.008Z,3.83
2019-02-05T09:18:47.408Z,3.83
2019-02-05T09:21:17.499Z,4.00
2019-02-05T09:23:46.814Z,4.23
2019-02-05T09:26:15.896Z,4.23
2019-02-05T09:28:45.215Z,4.55
2019-02-05T09:31:14.341Z,4.83
2019-02-05T09:33:43.435Z,4.93
2019-02-05T09:36:12.792Z,5.08
2019-02-05T09:38:42.138Z,5.04
2019-02-05T09:41:11.347Z,5.25
2019-02-05T09:43:40.413Z,5.33
2019-02-05T09:46:09.692Z,5.54
2019-02-05T09:48:39.027Z,5.60
2019-02-05T09:51:08.302Z,5.73
2019-02-05T09:53:37.404Z,5.77
2019-02-05T09:56:06.770Z,5.59
2019-02-05T09:58:35.811Z,5.75
2019-02-05T10:01:06.148Z,5.83
2019-02-05T10:03:35.324Z,5.92
2019-02-05T10:06:04.637Z,6.03
2019-02-05T10:08:33.696Z,6.23
2019-02-05T10:11:03.234Z,6.32
2019-02-05T10:13:32.280Z,6.37
2019-02-05T10:16:01.407Z,6.47
2019-02-05T10:18:30.733Z,6.55
2019-02-05T10:20:59.923Z,6.46
2019-02-05T10:23:29.002Z,6.54
2019-02-05T10:25:58.360Z,6.69
2019-02-05T10:28:27.873Z,6.79
2019-02-05T10:30:57.058Z,6.74
2019-02-05T10:33:26.125Z,6.68
2019-02-05T10:35:55.314Z,6.73
2019-02-05T10:38:24.581Z,6.86
2019-02-05T10:40:53.787Z,6.88
2019-02-05T10:43:22.849Z,6.79
2019-02-05T10:45:51.937Z,6.78
2019-02-05T10:48:21.227Z,6.73
2019-02-05T10:50:50.499Z,6.62
2019-02-05T10:53:19.700Z,6.69
2019-02-05T10:55:48.740Z,6.58
2019-02-05T10:58:18.044Z,6.62
2019-02-05T11:00:47.506Z,6.63
2019-02-05T11:03:16.600Z,6.72
2019-02-05T11:05:45.806Z,6.84
2019-02-05T11:08:14.950Z,6.81
2019-02-05T11:10:44.170Z,6.86
2019-02-05T11:13:13.431Z,7.01
2019-02-05T11:15:42.528Z,7.09
2019-02-05T11:18:11.905Z,7.00
2019-02-05T11:20:41.084Z,7.10
2019-02-05T11:23:10.378Z,7.23
2019-02-05T11:25:39.879Z,7.21
2019-02-05T11:28:09.027Z,7.25
2019-02-05T11:30:43.792Z,7.40
2019-02-05T11:33:13.142Z,7.50
2019-02-05T11:35:42.229Z,7.52
2019-02-05T11:38:12.454Z,7.55
2019-02-05T11:40:41.882Z,7.61
2019-02-05T11:43:11.069Z,7.55
2019-02-05T11:45:40.162Z,7.57
2019-02-05T11:48:20.385Z,7.63
2019-02-05T11:50:49.596Z,7.60
2019-02-05T11:53:18.668Z,7.60
2019-02-05T11:55:47.869Z,7.54
2019-02-05T11:58:17.195Z,7.55
2019-02-05T12:01:03.468Z,7.54
2019-02-05T12:03:32.897Z,7.53
2019-02-05T12:06:02.203Z,7.59
2019-02-05T12:08:31.245Z,7.69
2019-02-05T12:11:00.664Z,7.63
2019-02-05T12:13:29.910Z,7.42
2019-02-05T12:15:59.234Z,7.52
2019-02-05T12:18:28.365Z,7.49
2019-02-05T12:20:57.459Z,7.61
2019-02-05T12:23:26.634Z,7.73
2019-02-05T12:25:56.041Z,7.82
2019-02-05T12:28:25.245Z,7.78
2019-02-05T12:30:54.407Z,7.81
2019-02-05T12:33:23.704Z,7.85
2019-02-05T12:35:52.861Z,7.90
2019-02-05T12:38:22.372Z,7.67
2019-02-05T12:40:51.445Z,7.72
2019-02-05T12:43:20.534Z,7.63
2019-02-05T12:45:49.769Z,7.43
2019-02-05T12:48:18.969Z,7.47
2019-02-05T12:50:48.270Z,7.61
2019-02-05T12:53:17.421Z,7.64
2019-02-05T12:55:46.548Z,7.70
2019-02-05T12:58:15.851Z,7.75
2019-02-05T13:00:56.865Z,7.66
2019-02-05T13:03:18.328Z,7.72
2019-02-05T13:05:47.708Z,7.78
2019-02-05T13:08:17.377Z,7.78
2019-02-05T13:10:48.863Z,7.79
2019-02-05T13:13:18.454Z,7.78
2019-02-05T13:15:47.612Z,7.84
2019-02-05T13:18:16.697Z,7.85
2019-02-05T13:20:45.795Z,7.88
2019-02-05T13:23:14.903Z,7.91
2019-02-05T13:25:44.172Z,7.76
2019-02-05T13:28:15.582Z,7.77
2019-02-05T13:30:44.776Z,7.67
2019-02-05T13:33:15.943Z,7.61
2019-02-05T13:35:45.230Z,7.69
2019-02-05T13:38:14.314Z,7.78
2019-02-05T13:40:43.510Z,7.93
2019-02-05T13:43:12.568Z,7.95
2019-02-05T13:45:42.667Z,7.95
2019-02-05T13:48:13.179Z,7.94
2019-02-05T13:50:42.436Z,8.00
2019-02-05T13:53:11.674Z,8.02
2019-02-05T13:55:42.912Z,8.07
2019-02-05T13:58:12.994Z,8.09
2019-02-05T14:00:47.383Z,8.04
2019-02-05T14:03:16.544Z,8.00
2019-02-05T14:05:46.559Z,7.88
2019-02-05T14:08:15.861Z,7.84
2019-02-05T14:10:46.315Z,7.84
2019-02-05T14:13:15.337Z,7.76
2019-02-05T14:15:45.991Z,7.69
2019-02-05T14:18:15.241Z,7.66
2019-02-05T14:20:44.633Z,7.66
2019-02-05T14:23:14.001Z,7.74
2019-02-05T14:25:43.065Z,7.71
2019-02-05T14:28:12.394Z,7.72
2019-02-05T14:31:02.522Z,7.69
2019-02-05T14:33:32.402Z,7.67
2019-02-05T14:36:01.459Z,7.68
2019-02-05T14:38:30.753Z,7.68
2019-02-05T14:41:00.146Z,7.62
2019-02-05T14:43:29.369Z,7.55
2019-02-05T14:45:58.438Z,7.52
2019-02-05T14:48:27.634Z,7.48
2019-02-05T14:50:57.552Z,7.71
2019-02-05T14:53:26.951Z,7.58
2019-02-05T14:55:56.460Z,7.50
2019-02-05T14:58:25.584Z,7.51
2019-02-05T15:00:54.656Z,7.43
2019-02-05T15:03:24.188Z,7.41
2019-02-05T15:05:53.323Z,7.44
2019-02-05T15:08:22.594Z,7.39
2019-02-05T15:10:51.678Z,7.33
2019-02-05T15:13:20.754Z,7.30
2019-02-05T15:15:49.950Z,7.32
2019-02-05T15:18:21.171Z,7.31
2019-02-05T15:20:51.020Z,7.30
2019-02-05T15:23:21.585Z,7.34
2019-02-05T15:25:51.458Z,7.32
2019-02-05T15:28:20.835Z,7.17
2019-02-05T15:30:50.343Z,7.09
2019-02-05T15:33:49.427Z,7.07
2019-02-05T15:36:22.707Z,7.14
2019-02-05T15:38:51.876Z,7.06
2019-02-05T15:41:21.134Z,6.99
2019-02-05T15:43:50.329Z,6.95
2019-02-05T15:46:19.591Z,6.91
2019-02-05T15:48:49.218Z,6.84
2019-02-05T15:51:18.491Z,6.79
2019-02-05T15:53:47.605Z,6.74
2019-02-05T15:56:16.834Z,6.69
2019-02-05T15:58:45.958Z,6.63
2019-02-05T16:01:15.367Z,6.56
2019-02-05T16:03:45.144Z,6.45
2019-02-05T16:06:14.301Z,6.34
2019-02-05T16:08:43.445Z,6.23
2019-02-05T16:11:12.915Z,6.14
2019-02-05T16:13:42.082Z,6.04
2019-02-05T16:16:11.378Z,5.90
2019-02-05T16:18:42.248Z,5.78
2019-02-05T16:21:11.514Z,5.70
2019-02-05T16:23:40.842Z,5.61
2019-02-05T16:26:09.939Z,5.52
2019-02-05T16:28:39.200Z,5.47
2019-02-05T16:31:08.330Z,5.42
2019-02-05T16:33:37.667Z,5.30
2019-02-05T16:36:07.173Z,5.16
2019-02-05T16:38:36.463Z,5.06
2019-02-05T16:41:06.347Z,4.93
2019-02-05T16:43:35.738Z,4.88
2019-02-05T16:46:04.932Z,4.79
2019-02-05T16:48:34.024Z,4.67
2019-02-05T16:51:03.601Z,4.53
2019-02-05T16:53:32.852Z,4.43
2019-02-05T16:56:01.881Z,4.34
2019-02-05T16:58:30.966Z,4.26
2019-02-05T17:01:00.103Z,4.18
2019-02-05T17:03:29.326Z,4.13
2019-02-05T17:05:58.627Z,4.02
2019-02-05T17:08:27.887Z,3.94
2019-02-05T17:10:57.139Z,3.84
2019-02-05T17:13:26.277Z,3.73
2019-02-05T17:15:55.635Z,3.66
2019-02-05T17:18:24.899Z,3.50
2019-02-05T17:20:54.251Z,3.41
2019-02-05T17:23:23.438Z,3.35
2019-02-05T17:25:52.767Z,3.24
2019-02-05T17:28:21.867Z,3.19
2019-02-05T17:30:51.179Z,3.09
2019-02-05T17:33:20.278Z,3.00
2019-02-05T17:35:49.576Z,2.95
2019-02-05T17:38:18.673Z,2.95
2019-02-05T17:40:47.903Z,2.80
2019-02-05T17:43:17.014Z,2.69
2019-02-05T17:45:47.513Z,2.70
2019-02-05T17:48:18.130Z,2.52
2019-02-05T17:50:47.607Z,2.52
2019-02-05T17:53:16.752Z,2.50
2019-02-05T17:55:45.889Z,2.50
2019-02-05T17:58:17.290Z,2.44
2019-02-05T18:00:51.537Z,2.39
2019-02-05T18:03:21.364Z,2.23
2019-02-05T18:05:50.713Z,2.13
2019-02-05T18:08:19.947Z,1.99
2019-02-05T18:10:49.144Z,1.92
2019-02-05T18:13:20.104Z,1.92
2019-02-05T18:15:49.644Z,1.85
2019-02-05T18:18:20.416Z,1.78
2019-02-05T18:20:50.043Z,1.71
2019-02-05T18:23:21.061Z,1.71
2019-02-05T18:25:50.129Z,1.72
2019-02-05T18:28:21.419Z,1.61
2019-02-05T18:30:50.711Z,1.61
2019-02-05T18:33:19.934Z,1.69
2019-02-05T18:35:49.679Z,1.63
2019-02-05T18:38:18.689Z,1.44
2019-02-05T18:40:47.915Z,1.46
2019-02-05T18:43:17.012Z,1.46
2019-02-05T18:45:46.323Z,1.45
2019-02-05T18:48:15.644Z,1.58
2019-02-05T18:50:45.425Z,1.40
2019-02-05T18:53:14.589Z,1.40
2019-02-05T18:55:43.784Z,1.45
2019-02-05T18:58:13.000Z,1.47
2019-02-05T19:00:43.121Z,1.29
2019-02-05T19:03:16.432Z,1.27
2019-02-05T19:05:44.016Z,1.19
2019-02-05T19:08:16.261Z,1.14
2019-02-05T19:10:44.065Z,1.12
2019-02-05T19:13:13.393Z,1.14
2019-02-05T19:15:42.599Z,1.07
2019-02-05T19:18:11.911Z,1.12
2019-02-05T19:20:41.094Z,1.09
2019-02-05T19:23:10.519Z,1.15
2019-02-05T19:26:08.475Z,1.17
2019-02-05T19:28:40.521Z,1.26
2019-02-05T19:31:28.871Z,1.31
2019-02-05T19:33:57.927Z,1.31
2019-02-05T19:36:27.391Z,1.26
2019-02-05T19:38:56.977Z,1.26
2019-02-05T19:41:26.469Z,1.34
2019-02-05T19:43:56.299Z,1.34
2019-02-05T19:46:57.152Z,1.42
2019-02-05T19:49:32.540Z,1.42
2019-02-05T19:52:02.101Z,1.33
2019-02-05T19:54:31.443Z,1.11
2019-02-05T19:57:01.445Z,1.24
2019-02-05T19:59:30.971Z,1.23
2019-02-05T20:02:01.001Z,1.36
2019-02-05T20:04:31.593Z,1.36
2019-02-05T20:07:00.900Z,1.23
2019-02-05T20:09:30.235Z,1.33
2019-02-05T20:11:59.344Z,1.26
2019-02-05T20:14:28.694Z,1.26
2019-02-05T20:16:57.898Z,1.09
2019-02-05T20:19:26.988Z,1.04
2019-02-05T20:21:56.306Z,1.06
2019-02-05T20:24:25.460Z,1.14
2019-02-05T20:26:55.127Z,1.02
2019-02-05T20:29:24.447Z,0.95
2019-02-05T20:31:53.741Z,0.98
2019-02-05T20:34:23.023Z,0.98
2019-02-05T20:36:52.268Z,0.96
2019-02-05T20:39:21.809Z,0.94
2019-02-05T20:41:52.682Z,0.91
2019-02-05T20:44:22.135Z,0.89
2019-02-05T20:46:51.438Z,0.71
2019-02-05T20:49:21.215Z,0.65
2019-02-05T20:51:51.405Z,0.67
2019-02-05T20:54:20.584Z,0.63
2019-02-05T20:56:49.714Z,0.65
2019-02-05T20:59:19.109Z,0.56
2019-02-05T21:01:48.348Z,0.58
2019-02-05T21:04:17.515Z,0.52
2019-02-05T21:06:48.133Z,0.38
2019-02-05T21:09:19.229Z,0.43
2019-02-05T21:11:48.811Z,0.50
2019-02-05T21:14:19.167Z,0.44
2019-02-05T21:16:48.471Z,0.42
2019-02-05T21:19:17.742Z,0.38
2019-02-05T21:21:46.890Z,0.37
2019-02-05T21:24:16.121Z,0.26
2019-02-05T21:26:45.241Z,0.34
2019-02-05T21:29:14.675Z,0.31
2019-02-05T21:31:43.874Z,0.20
2019-02-05T21:34:15.939Z,0.00
2019-02-05T21:36:44.303Z,-0.08
2019-02-05T21:39:13.669Z,-0.04
2019-02-05T21:41:42.792Z,0.06
2019-02-05T21:44:12.093Z,-0.08
2019-02-05T21:46:41.462Z,-0.07
2019-02-05T21:49:10.553Z,0.01
2019-02-05T21:51:42.954Z,-0.19
2019-02-05T21:54:11.006Z,-0.04
2019-02-05T21:56:40.236Z,0.32
2019-02-05T21:59:09.333Z,0.40
2019-02-05T22:01:38.557Z,0.27
2019-02-05T22:04:10.071Z,0.20
2019-02-05T22:06:38.903Z,0.24
2019-02-05T22:09:11.794Z,0.31
2019-02-05T22:11:41.232Z,0.35
2019-02-05T22:14:10.297Z,0.21
2019-02-05T22:16:39.610Z,0.29
2019-02-05T22:19:09.070Z,0.30
2019-02-05T22:21:38.176Z,0.30
2019-02-05T22:24:07.385Z,0.32
2019-02-05T22:26:36.662Z,0.35
2019-02-05T22:29:07.533Z,0.29
2019-02-05T22:31:37.223Z,0.35
2019-02-05T22:34:07.265Z,0.25
2019-02-05T22:36:36.405Z,0.32
2019-02-05T22:39:08.459Z,0.30
2019-02-05T22:41:38.580Z,0.26
2019-02-05T22:44:07.805Z,0.24
2019-02-05T22:46:36.995Z,0.19
2019-02-05T22:49:06.198Z,0.07
2019-02-05T22:51:35.576Z,0.15
2019-02-05T22:54:04.783Z,0.19
2019-02-05T22:56:33.976Z,0.18
2019-02-05T22:59:03.344Z,0.18
2019-02-05T23:01:40.303Z,0.06
2019-02-05T23:04:51.120Z,0.04
2019-02-05T23:07:22.121Z,-0.08
2019-02-05T23:10:15.459Z,-0.13
2019-02-05T23:12:55.182Z,-0.19
2019-02-05T23:15:28.965Z,-0.21
2019-02-05T23:17:56.938Z,-0.21
2019-02-05T23:20:26.251Z,-0.42
2019-02-05T23:22:57.112Z,-0.51
2019-02-05T23:25:26.129Z,-0.46
2019-02-05T23:27:55.358Z,-0.47
2019-02-05T23:30:26.602Z,-0.48
2019-02-05T23:32:55.911Z,-0.46
2019-02-05T23:35:25.031Z,-0.49
2019-02-05T23:37:54.133Z,-0.51
2019-02-05T23:40:23.386Z,-0.57
2019-02-05T23:42:52.479Z,-0.63
2019-02-05T23:45:21.873Z,-0.66
2019-02-05T23:47:51.051Z,-0.67
2019-02-05T23:50:20.164Z,-0.68
2019-02-05T23:52:49.344Z,-0.69
2019-02-05T23:55:18.789Z,-0.70
2019-02-05T23:57:47.967Z,-0.71
